Terminal Aerodrome Forecast
Issued by NWS Binghamton, NY

Home | Current Version | Previous Version | Text Only | Print | Product List | Glossary On
Versions: 1 2 3 4 5 6 7 8 9 10 11 12 13 14 15 16 17 18 19 20 21
000
FTUS41 KBGM 211400 AAA
TAFAVP
TAF AMD
KAVP 211455Z 2115/2212 24005KT P6SM -SHRA OVC050
     FM211700 24003KT P6SM -SHRA SCT025 OVC045
     FM220100 02005KT 5SM -SHRA OVC025=

USA.gov is the U.S. government's official web portal to all federal, state and local government web resources and services.